Time;durP1;ratioP1;P1;durP2;ratioP2;P2;SDS_P1;SDS_P2;PMS_P1;PMS_P2;Temp;Humidity;BMP_temperature;BMP_pressure;BME280_temperature;BME280_humidity;BME280_pressure;Samples;Min_cycle;Max_cycle;Signal;HPM_P1;HPM_P2
2023/06/26 00:01:02;;;;;;;11.40;8.43;;;;;;;21.21;56.88;99045.50;4496109;31;34365;-94
2023/06/26 00:03:30;;;;;;;10.52;7.62;;;;;;;21.29;56.39;99043.50;4482537;32;33589;-91
2023/06/26 00:06:00;;;;;;;14.95;9.43;;;;;;;21.25;56.61;99041.88;4481439;32;33816;-86
2023/06/26 00:08:28;;;;;;;11.93;8.20;;;;;;;20.92;56.90;99045.59;4482752;32;34022;-82
2023/06/26 00:10:56;;;;;;;10.57;8.52;;;;;;;21.10;56.16;99042.34;4483413;31;34386;-94
2023/06/26 00:13:24;;;;;;;11.77;8.82;;;;;;;20.78;55.70;99044.22;4498293;31;33577;-82
2023/06/26 00:15:51;;;;;;;10.75;8.40;;;;;;;20.97;55.32;99046.31;4483672;31;34106;-82
2023/06/26 00:18:19;;;;;;;11.98;8.85;;;;;;;20.65;55.62;99046.38;4498300;31;33927;-94
2023/06/26 00:20:46;;;;;;;13.40;9.43;;;;;;;20.72;55.27;99047.06;4497774;31;33980;-89
2023/06/26 00:23:16;;;;;;;13.50;8.65;;;;;;;20.84;55.75;99043.19;4482221;32;34040;-82
2023/06/26 00:25:44;;;;;;;12.50;8.45;;;;;;;21.08;55.53;99049.47;4482226;32;34049;-82
2023/06/26 00:28:11;;;;;;;12.30;8.25;;;;;;;21.07;55.66;99039.84;4470559;31;33875;-89
2023/06/26 00:30:39;;;;;;;11.43;8.73;;;;;;;20.93;55.30;99040.25;4496225;31;33554;-82
2023/06/26 00:33:07;;;;;;;11.07;8.50;;;;;;;21.07;54.53;99042.47;4497846;31;34016;-91
2023/06/26 00:35:35;;;;;;;10.50;8.70;;;;;;;21.10;55.58;99044.97;4497905;31;34152;-94
2023/06/26 00:38:03;;;;;;;10.40;8.02;;;;;;;21.23;56.44;99038.41;4498492;31;34112;-82
2023/06/26 00:40:31;;;;;;;12.82;8.30;;;;;;;21.37;56.13;99051.19;4484119;32;33122;-83
2023/06/26 00:42:58;;;;;;;10.60;8.00;;;;;;;21.41;56.02;99047.53;4484457;32;34078;-86
2023/06/26 00:45:26;;;;;;;14.35;8.60;;;;;;;21.53;55.54;99048.91;4482797;32;34205;-82
2023/06/26 00:48:11;;;;;;;13.43;9.00;;;;;;;21.18;56.52;99050.91;4484104;31;33419;-83
2023/06/26 00:50:41;;;;;;;12.68;8.65;;;;;;;20.94;55.41;99044.59;4482900;31;33486;-94
2023/06/26 00:53:11;;;;;;;11.75;8.40;;;;;;;21.00;55.97;99048.84;4484208;32;35432;-95
2023/06/26 00:55:39;;;;;;;14.73;9.30;;;;;;;21.10;56.25;99050.25;4484147;32;34283;-82
2023/06/26 00:58:06;;;;;;;15.68;9.20;;;;;;;21.08;56.42;99044.19;4484600;31;34054;-82
2023/06/26 01:00:34;;;;;;;10.65;8.10;;;;;;;21.16;56.54;99039.53;4499944;31;32610;-91
2023/06/26 01:03:02;;;;;;;11.02;7.70;;;;;;;21.19;56.13;99042.06;4499991;31;34637;-93
2023/06/26 01:05:30;;;;;;;11.43;8.07;;;;;;;21.03;56.18;99030.31;4499858;31;34873;-82
2023/06/26 01:07:58;;;;;;;12.63;8.52;;;;;;;21.02;56.12;99033.81;4492576;31;33684;-82
2023/06/26 01:10:29;;;;;;;13.18;8.18;;;;;;;20.97;56.30;99027.84;4493500;31;33458;-82
2023/06/26 01:12:57;;;;;;;10.95;8.07;;;;;;;20.87;56.83;99022.00;4498635;31;34477;-90
2023/06/26 01:15:25;;;;;;;11.68;8.18;;;;;;;20.84;57.00;99022.97;4498843;31;34174;-92
2023/06/26 01:17:53;;;;;;;11.85;8.57;;;;;;;20.92;56.71;99024.50;4491681;31;33993;-95
2023/06/26 01:20:20;;;;;;;12.85;8.05;;;;;;;20.95;56.48;99016.47;4484144;32;33222;-82
2023/06/26 01:22:54;;;;;;;11.10;7.93;;;;;;;21.05;56.12;99018.78;4484220;32;33533;-91
2023/06/26 01:25:28;;;;;;;12.00;8.55;;;;;;;21.00;56.13;99012.81;4484094;32;33888;-82
2023/06/26 01:27:55;;;;;;;12.05;8.68;;;;;;;20.86;56.46;99015.88;4483967;32;34590;-82
2023/06/26 01:30:24;;;;;;;12.15;8.43;;;;;;;20.78;56.41;99009.97;4482902;32;33233;-82
2023/06/26 01:32:51;;;;;;;12.00;8.48;;;;;;;20.63;56.97;99006.03;4483834;32;34009;-95
2023/06/26 01:35:22;;;;;;;12.77;9.23;;;;;;;20.65;56.78;99011.28;4483845;32;35125;-82
2023/06/26 01:37:49;;;;;;;11.68;7.90;;;;;;;20.53;57.50;99009.00;4483825;32;33892;-82
2023/06/26 01:40:17;;;;;;;11.12;8.38;;;;;;;20.64;56.98;99007.75;4483775;32;33980;-83
2023/06/26 01:42:45;;;;;;;11.80;8.70;;;;;;;20.09;56.50;99011.16;4484336;32;34086;-90
2023/06/26 01:45:20;;;;;;;14.02;8.52;;;;;;;20.24;56.26;99007.22;4483509;32;34355;-82
2023/06/26 01:47:50;;;;;;;13.38;8.52;;;;;;;20.19;55.65;99009.94;4483630;32;33632;-82
2023/06/26 01:50:23;;;;;;;12.65;8.68;;;;;;;19.89;56.71;99006.44;4482482;32;33316;-87
2023/06/26 01:53:04;;;;;;;11.70;8.52;;;;;;;19.89;56.26;99006.44;4482217;32;33381;-92
2023/06/26 01:55:55;;;;;;;12.37;8.55;;;;;;;20.25;56.42;99015.06;4479562;32;34102;-82
2023/06/26 01:58:25;;;;;;;11.77;8.15;;;;;;;20.24;55.33;99010.69;4482579;32;33990;-89
2023/06/26 02:00:53;;;;;;;12.20;8.77;;;;;;;20.41;56.08;99013.69;4482822;32;33312;-90
2023/06/26 02:03:24;;;;;;;13.27;8.00;;;;;;;20.29;55.29;99019.31;4483526;32;34330;-83
2023/06/26 02:05:51;;;;;;;10.52;7.97;;;;;;;20.18;55.08;99014.38;4482363;32;33848;-87
2023/06/26 02:08:19;;;;;;;14.13;8.30;;;;;;;20.54;54.21;99010.75;4482405;32;33964;-91
2023/06/26 02:10:48;;;;;;;12.23;8.00;;;;;;;20.38;54.71;99011.16;4483830;32;33515;-82
2023/06/26 02:13:16;;;;;;;13.43;8.63;;;;;;;20.05;55.52;99009.50;4482335;32;34485;-82
2023/06/26 02:15:44;;;;;;;13.15;8.02;;;;;;;20.46;55.58;99007.44;4483713;32;34017;-94
2023/06/26 02:18:11;;;;;;;13.00;8.10;;;;;;;20.57;55.72;99005.34;4483782;32;34358;-93
2023/06/26 02:20:39;;;;;;;12.15;7.85;;;;;;;20.55;55.06;99012.47;4483858;32;34596;-93
2023/06/26 02:23:07;;;;;;;11.35;8.13;;;;;;;20.53;54.09;99004.63;4484084;31;34179;-89
2023/06/26 02:25:35;;;;;;;11.73;8.27;;;;;;;20.59;54.70;99003.56;4483681;32;34392;-94
2023/06/26 02:28:03;;;;;;;11.65;7.97;;;;;;;20.69;55.29;99005.00;4483494;32;34800;-85
2023/06/26 02:30:30;;;;;;;13.00;8.65;;;;;;;20.78;55.73;99009.97;4482249;32;33401;-82
2023/06/26 02:32:59;;;;;;;12.88;8.43;;;;;;;20.96;56.13;99012.97;4475011;31;33830;-95
2023/06/26 02:35:27;;;;;;;12.40;8.35;;;;;;;20.79;56.11;99019.59;4498112;31;34990;-91
2023/06/26 02:37:54;;;;;;;13.23;8.98;;;;;;;20.67;56.16;99021.75;4498929;31;33964;-91
2023/06/26 02:40:22;;;;;;;11.02;8.23;;;;;;;20.81;55.96;99036.25;4491825;31;32773;-93
2023/06/26 02:42:51;;;;;;;10.70;7.75;;;;;;;20.90;55.73;99029.81;4483798;32;34725;-92
2023/06/26 02:45:19;;;;;;;12.43;7.82;;;;;;;20.84;55.82;99025.59;4483579;32;35197;-82
2023/06/26 02:47:47;;;;;;;13.15;8.82;;;;;;;20.63;55.77;99019.22;4483973;32;34567;-81
2023/06/26 02:50:15;;;;;;;11.88;8.18;;;;;;;20.73;55.68;99030.34;4489748;31;33631;-88
2023/06/26 02:52:47;;;;;;;11.90;8.15;;;;;;;20.57;56.05;99035.22;4499234;31;33904;-94
2023/06/26 02:55:15;;;;;;;14.02;8.90;;;;;;;20.40;56.76;99030.41;4499395;31;33610;-91
2023/06/26 02:57:43;;;;;;;13.85;9.20;;;;;;;20.30;56.89;99034.19;4499249;31;33496;-82
2023/06/26 03:00:11;;;;;;;11.82;9.07;;;;;;;20.45;56.52;99030.25;4491026;31;33360;-82
2023/06/26 03:02:40;;;;;;;11.82;8.70;;;;;;;20.36;56.95;99034.03;4482209;32;32411;-89
2023/06/26 03:05:08;;;;;;;11.10;8.18;;;;;;;20.37;56.66;99029.62;4483380;32;34978;-88
2023/06/26 03:07:36;;;;;;;13.32;8.75;;;;;;;20.37;56.39;99037.53;4482015;32;33802;-85
2023/06/26 03:10:05;;;;;;;10.70;8.07;;;;;;;20.30;56.69;99026.31;4488164;31;34130;-82
2023/06/26 03:12:32;;;;;;;11.18;7.57;;;;;;;20.31;56.81;99030.69;4498688;31;34018;-92
2023/06/26 03:15:00;;;;;;;10.98;7.85;;;;;;;20.55;56.60;99037.03;4498764;31;34106;-82
2023/06/26 03:17:28;;;;;;;10.55;8.00;;;;;;;20.78;55.79;99032.84;4498960;31;34038;-89
2023/06/26 03:19:57;;;;;;;12.07;7.78;;;;;;;20.52;56.50;99033.63;4494716;31;33693;-93
2023/06/26 03:22:25;;;;;;;11.45;7.97;;;;;;;20.60;56.04;99036.88;4483104;32;34272;-83
2023/06/26 03:24:52;;;;;;;10.40;8.05;;;;;;;20.40;56.59;99035.66;4483290;32;34202;-82
2023/06/26 03:27:20;;;;;;;10.32;7.47;;;;;;;20.56;56.21;99041.37;4481673;32;33330;-92
2023/06/26 03:29:48;;;;;;;11.30;8.27;;;;;;;20.61;56.23;99047.38;4485592;31;34174;-82
2023/06/26 03:32:16;;;;;;;10.75;8.02;;;;;;;20.62;56.33;99045.63;4498538;31;33867;-82
2023/06/26 03:34:43;;;;;;;14.35;8.27;;;;;;;20.38;57.15;99047.13;4498793;31;35081;-82
2023/06/26 03:37:11;;;;;;;9.57;7.75;;;;;;;20.45;57.27;99047.84;4497681;31;32942;-82
2023/06/26 03:39:39;;;;;;;14.63;8.27;;;;;;;20.70;56.46;99048.87;4495941;31;34347;-91
2023/06/26 03:42:06;;;;;;;12.20;8.52;;;;;;;20.77;56.12;99039.03;4481675;32;33630;-90
2023/06/26 03:44:34;;;;;;;13.80;8.77;;;;;;;20.56;57.03;99051.06;4482927;32;34985;-92
2023/06/26 03:47:02;;;;;;;14.93;8.38;;;;;;;20.64;56.84;99043.78;4482928;32;34175;-82
2023/06/26 03:49:29;;;;;;;13.52;9.60;;;;;;;20.65;57.12;99045.53;4482439;31;33528;-92
2023/06/26 03:51:57;;;;;;;11.85;7.82;;;;;;;20.90;56.16;99045.63;4498323;31;34053;-94
2023/06/26 03:54:25;;;;;;;12.13;7.95;;;;;;;21.04;55.82;99043.41;4498489;31;35068;-82
2023/06/26 03:56:53;;;;;;;12.15;8.13;;;;;;;21.23;55.18;99043.69;4498302;31;33962;-90
2023/06/26 03:59:21;;;;;;;11.68;7.82;;;;;;;21.26;55.82;99043.59;4498696;31;33186;-93
2023/06/26 04:01:49;;;;;;;10.40;7.87;;;;;;;21.29;55.34;99045.25;4483158;31;34634;-82
2023/06/26 04:04:20;;;;;;;10.80;7.57;;;;;;;21.44;54.57;99051.84;4482722;32;33727;-82
2023/06/26 04:06:48;;;;;;;10.68;7.62;;;;;;;22.00;53.69;99051.66;4482847;32;34143;-92
2023/06/26 04:09:15;;;;;;;14.05;7.97;;;;;;;21.95;54.19;99048.34;4482398;32;33337;-92
2023/06/26 04:11:44;;;;;;;10.75;7.90;;;;;;;22.28;53.74;99052.44;4497918;31;33701;-82
2023/06/26 04:14:12;;;;;;;10.48;7.28;;;;;;;22.56;53.34;99046.97;4500215;31;33728;-82
2023/06/26 04:16:40;;;;;;;9.95;7.65;;;;;;;22.79;52.66;99043.44;4500632;31;34139;-82
2023/06/26 04:19:10;;;;;;;14.05;8.48;;;;;;;22.92;52.05;99050.91;4486056;31;31976;-94
2023/06/26 04:21:37;;;;;;;14.57;8.05;;;;;;;22.90;51.98;99050.97;4498957;31;33700;-93
2023/06/26 04:24:05;;;;;;;11.25;7.37;;;;;;;23.13;52.05;99044.78;4498967;31;34178;-92
2023/06/26 04:26:33;;;;;;;9.98;6.75;;;;;;;23.69;50.79;99038.97;4500072;31;34695;-83
2023/06/26 04:29:01;;;;;;;9.43;6.55;;;;;;;23.98;49.83;99050.06;4499672;31;33280;-89
2023/06/26 04:31:28;;;;;;;12.07;7.10;;;;;;;24.16;49.55;99046.59;4500420;31;33843;-93
2023/06/26 04:33:57;;;;;;;9.32;6.15;;;;;;;24.46;48.51;99043.53;4500109;31;34124;-92
2023/06/26 04:36:28;;;;;;;9.75;7.32;;;;;;;24.75;48.32;99048.34;4500371;31;33829;-83
2023/06/26 04:38:56;;;;;;;9.32;6.10;;;;;;;24.94;47.81;99044.81;4498070;31;33553;-82
2023/06/26 04:41:23;;;;;;;11.10;6.55;;;;;;;25.19;47.27;99049.81;4493981;31;34954;-91
2023/06/26 04:43:51;;;;;;;9.77;6.30;;;;;;;25.27;47.18;99047.69;4491888;31;34278;-89
2023/06/26 04:46:19;;;;;;;9.50;6.47;;;;;;;25.55;46.70;99046.28;4494832;31;33935;-82
2023/06/26 04:48:47;;;;;;;9.57;6.65;;;;;;;25.75;46.62;99050.59;4500663;31;33244;-83
2023/06/26 04:51:14;;;;;;;10.10;6.97;;;;;;;25.96;46.31;99055.69;4500161;31;33893;-82
2023/06/26 04:53:41;;;;;;;10.73;6.72;;;;;;;26.00;46.52;99051.06;4500176;31;34257;-91
2023/06/26 04:56:11;;;;;;;10.10;6.93;;;;;;;26.11;46.02;99050.50;4485242;31;33943;-96
2023/06/26 04:58:38;;;;;;;9.32;5.95;;;;;;;26.11;46.19;99059.34;4483005;32;34195;-83
2023/06/26 05:01:06;;;;;;;10.00;6.22;;;;;;;26.51;45.81;99061.69;4484765;31;34461;-82
2023/06/26 05:03:35;;;;;;;8.95;6.32;;;;;;;26.26;45.66;99054.16;4499984;31;34210;-96
2023/06/26 05:06:02;;;;;;;10.02;6.45;;;;;;;26.81;45.36;99052.03;4485629;31;33459;-94
2023/06/26 05:08:36;;;;;;;15.15;6.80;;;;;;;26.81;45.74;99052.03;4483539;31;32894;-83
2023/06/26 05:11:03;;;;;;;9.77;6.93;;;;;;;27.04;44.81;99050.72;4470823;32;32896;-87
2023/06/26 05:13:31;;;;;;;12.98;6.82;;;;;;;27.04;45.42;99048.06;4492345;31;34166;-82
2023/06/26 05:15:59;;;;;;;9.77;6.37;;;;;;;26.99;45.27;99050.16;4498799;31;34039;-94
2023/06/26 05:18:26;;;;;;;8.43;5.70;;;;;;;26.68;45.98;99061.66;4500459;31;32578;-82
2023/06/26 05:20:54;;;;;;;9.88;5.85;;;;;;;27.19;45.48;99056.16;4500795;31;33817;-96
2023/06/26 05:23:24;;;;;;;10.75;5.82;;;;;;;27.19;45.56;99045.53;4502508;31;33601;-83
2023/06/26 05:25:52;;;;;;;9.82;6.28;;;;;;;27.24;42.16;99048.78;4493565;31;34635;-90
2023/06/26 05:28:20;;;;;;;10.02;6.35;;;;;;;27.31;41.81;99037.69;4496395;31;33414;-93
2023/06/26 05:30:48;;;;;;;10.40;6.30;;;;;;;27.49;44.14;99049.06;4507319;31;34972;-82
2023/06/26 05:33:18;;;;;;;8.88;5.97;;;;;;;27.39;44.36;99042.59;4509400;31;34187;-86
2023/06/26 05:35:46;;;;;;;12.30;6.47;;;;;;;27.46;44.72;99049.25;4509145;31;33902;-85
2023/06/26 05:38:14;;;;;;;12.35;6.25;;;;;;;27.67;44.54;99051.62;4507352;31;33315;-90
2023/06/26 05:40:41;;;;;;;10.40;6.40;;;;;;;27.91;44.49;99044.84;4508304;31;33627;-93
2023/06/26 05:43:09;;;;;;;10.15;6.60;;;;;;;27.69;42.64;99053.22;4503852;31;34018;-92
2023/06/26 05:45:37;;;;;;;9.88;6.00;;;;;;;27.33;43.91;99050.91;4504761;31;33605;-82
2023/06/26 05:48:04;;;;;;;9.57;6.00;;;;;;;27.45;41.19;99052.88;4503848;31;33414;-82
2023/06/26 05:50:33;;;;;;;8.75;6.25;;;;;;;27.79;43.04;99045.59;4501993;31;33682;-82
2023/06/26 05:53:03;;;;;;;9.18;6.60;;;;;;;27.20;42.30;99049.88;4506786;31;35040;-84
2023/06/26 05:55:30;;;;;;;12.63;7.15;;;;;;;27.16;42.19;99050.09;4507638;31;33702;-91
2023/06/26 05:57:59;;;;;;;9.43;6.20;;;;;;;26.07;44.41;99062.25;4499268;31;32086;-83
2023/06/26 06:00:27;;;;;;;9.35;6.62;;;;;;;26.26;45.16;99060.31;4489994;31;33794;-83
2023/06/26 06:02:56;;;;;;;12.93;6.62;;;;;;;26.80;43.77;99050.31;4503150;31;34156;-84
2023/06/26 06:05:25;;;;;;;10.43;7.00;;;;;;;27.09;43.32;99051.34;4504021;31;34692;-83
2023/06/26 06:07:52;;;;;;;9.70;6.22;;;;;;;27.05;42.64;99049.81;4501992;31;33398;-85
2023/06/26 06:10:20;;;;;;;10.32;6.30;;;;;;;27.01;41.81;99050.06;4503848;31;34297;-90
2023/06/26 06:12:47;;;;;;;9.80;6.90;;;;;;;27.54;40.96;99043.47;4505122;31;34968;-90
2023/06/26 06:15:15;;;;;;;11.75;6.45;;;;;;;27.59;41.71;99050.25;4504624;31;34699;-83
2023/06/26 06:17:42;;;;;;;9.43;5.60;;;;;;;28.11;41.83;99046.31;4500299;31;34148;-83
2023/06/26 06:20:10;;;;;;;9.63;6.32;;;;;;;27.80;40.13;99049.94;4500206;31;33029;-84
2023/06/26 06:22:38;;;;;;;10.30;6.05;;;;;;;28.01;39.76;99053.16;4485967;32;33916;-83
2023/06/26 06:25:06;;;;;;;10.88;5.97;;;;;;;27.98;39.65;99051.50;4486994;32;33423;-91
2023/06/26 06:27:33;;;;;;;9.55;5.90;;;;;;;27.80;38.11;99057.94;4487079;32;33829;-84
2023/06/26 06:30:00;;;;;;;12.93;6.62;;;;;;;27.03;42.35;99054.34;4487190;32;33485;-89
2023/06/26 06:32:28;;;;;;;11.30;6.35;;;;;;;27.14;41.26;99056.44;4502077;31;34180;-96
2023/06/26 06:34:56;;;;;;;11.70;5.82;;;;;;;27.08;40.30;99056.75;4499141;31;34356;-94
2023/06/26 06:37:24;;;;;;;12.50;5.43;;;;;;;27.25;38.56;99054.03;4502063;31;33433;-83
2023/06/26 06:39:51;;;;;;;8.45;6.00;;;;;;;27.68;39.24;99053.31;4500820;31;34085;-94
2023/06/26 06:42:19;;;;;;;10.23;5.55;;;;;;;27.60;39.53;99054.63;4486951;31;34363;-83
2023/06/26 06:44:46;;;;;;;9.80;5.47;;;;;;;27.98;38.21;99059.50;4485332;32;33923;-84
2023/06/26 06:47:14;;;;;;;11.40;6.35;;;;;;;27.97;36.97;99055.13;4498582;31;31547;-83
2023/06/26 06:49:41;;;;;;;9.80;5.40;;;;;;;28.17;38.50;99055.72;4499755;31;33688;-85
2023/06/26 06:52:09;;;;;;;9.45;6.00;;;;;;;27.75;39.17;99057.38;4503109;31;34831;-83
2023/06/26 06:54:58;;;;;;;9.40;6.07;;;;;;;28.49;38.14;99057.31;4501778;31;34661;-94
2023/06/26 06:57:26;;;;;;;12.15;6.47;;;;;;;27.82;37.81;99061.38;4484693;32;33696;-84
2023/06/26 06:59:54;;;;;;;8.73;5.40;;;;;;;27.91;38.59;99057.31;4483214;32;34795;-83
2023/06/26 07:02:21;;;;;;;12.40;6.30;;;;;;;27.93;38.77;99050.09;4483767;32;33973;-93
2023/06/26 07:04:48;;;;;;;11.35;6.05;;;;;;;27.50;38.75;99053.44;4485778;32;33694;-83
2023/06/26 07:07:18;;;;;;;12.85;6.05;;;;;;;28.25;37.50;99053.44;4499376;31;33497;-86
2023/06/26 07:09:46;;;;;;;13.25;6.80;;;;;;;28.36;38.30;99056.31;4501065;31;33712;-83
2023/06/26 07:12:13;;;;;;;10.38;5.78;;;;;;;27.23;38.54;99055.03;4499489;31;34357;-83
2023/06/26 07:14:41;;;;;;;11.57;6.20;;;;;;;27.90;39.32;99053.78;4499346;31;34092;-83
2023/06/26 07:17:08;;;;;;;11.90;6.60;;;;;;;27.92;39.32;99051.91;4484009;31;33512;-83
2023/06/26 07:19:36;;;;;;;10.13;5.82;;;;;;;28.43;38.82;99052.34;4485242;32;33742;-83
2023/06/26 07:22:04;;;;;;;10.00;6.65;;;;;;;28.75;37.67;99049.44;4484471;31;35081;-89
2023/06/26 07:24:32;;;;;;;10.57;6.90;;;;;;;28.29;36.94;99052.31;4501900;31;33660;-83
2023/06/26 07:27:00;;;;;;;10.30;6.30;;;;;;;28.00;37.76;99057.63;4490333;31;34462;-95
2023/06/26 07:29:28;;;;;;;12.10;7.37;;;;;;;27.64;39.29;99053.50;4492768;31;34807;-83
2023/06/26 07:31:55;;;;;;;11.80;7.30;;;;;;;27.84;38.94;99047.03;4501607;31;34428;-83
2023/06/26 07:34:23;;;;;;;10.93;7.05;;;;;;;28.42;39.05;99053.31;4497617;31;33517;-83
2023/06/26 07:36:51;;;;;;;12.77;7.30;;;;;;;28.35;37.16;99049.25;4500958;31;33567;-83
2023/06/26 07:39:18;;;;;;;13.77;7.30;;;;;;;28.57;36.86;99051.50;4504639;31;33621;-91
2023/06/26 07:41:50;;;;;;;11.10;6.75;;;;;;;28.28;38.67;99042.59;4502411;31;35039;-84
2023/06/26 07:44:17;;;;;;;14.75;6.90;;;;;;;28.14;39.02;99044.28;4502300;31;33557;-83
2023/06/26 07:46:45;;;;;;;10.38;5.55;;;;;;;28.45;37.16;99050.44;4507971;31;33368;-83
2023/06/26 07:49:12;;;;;;;11.48;6.43;;;;;;;28.56;38.09;99053.31;4497282;31;33721;-87
2023/06/26 07:51:40;;;;;;;11.80;6.80;;;;;;;28.18;38.20;99054.78;4489023;31;33361;-83
2023/06/26 07:54:08;;;;;;;13.80;7.35;;;;;;;28.16;39.23;99056.69;4503188;31;33937;-96
2023/06/26 07:56:53;;;;;;;11.45;7.12;;;;;;;27.65;39.62;99052.56;4499804;31;33550;-83
2023/06/26 07:59:22;;;;;;;13.48;7.18;;;;;;;27.40;39.73;99060.28;4489520;31;34193;-84
2023/06/26 08:01:51;;;;;;;13.73;7.03;;;;;;;27.34;39.86;99063.28;4496963;31;34285;-83
2023/06/26 08:04:20;;;;;;;12.55;7.20;;;;;;;27.72;40.31;99063.69;4492845;31;34900;-83
2023/06/26 08:06:49;;;;;;;11.88;6.43;;;;;;;28.16;38.52;99060.22;4468211;32;32108;-83
2023/06/26 08:09:17;;;;;;;12.73;6.15;;;;;;;28.33;38.72;99061.81;4469939;32;33351;-83
2023/06/26 08:11:46;;;;;;;14.63;6.70;;;;;;;28.20;38.93;99061.72;4480857;32;34063;-83
2023/06/26 08:14:14;;;;;;;10.32;6.68;;;;;;;28.92;38.83;99054.56;4482262;32;33896;-83
2023/06/26 08:16:43;;;;;;;9.32;6.60;;;;;;;28.19;38.48;99062.69;4482206;32;33345;-83
2023/06/26 08:19:12;;;;;;;12.80;6.05;;;;;;;28.86;38.61;99044.28;4482039;32;33838;-83
2023/06/26 08:21:40;;;;;;;11.20;7.18;;;;;;;29.14;37.71;99050.56;4480926;32;34911;-83
2023/06/26 08:24:08;;;;;;;10.38;6.37;;;;;;;28.50;37.10;99058.16;4480719;32;33328;-83
2023/06/26 08:26:36;;;;;;;12.27;6.75;;;;;;;28.57;37.60;99063.00;4482283;32;33087;-83
2023/06/26 08:29:09;;;;;;;9.50;6.55;;;;;;;29.07;38.28;99058.09;4482174;32;33996;-82
2023/06/26 08:31:40;;;;;;;8.52;6.15;;;;;;;28.86;37.63;99070.97;4481970;32;33933;-83
2023/06/26 08:34:08;;;;;;;12.88;6.15;;;;;;;28.66;38.11;99068.72;4481188;32;32213;-83
2023/06/26 08:36:35;;;;;;;9.48;6.12;;;;;;;28.52;36.46;99065.09;4482140;32;34238;-83
2023/06/26 08:39:05;;;;;;;10.40;5.97;;;;;;;28.68;38.18;99064.13;4481766;32;33715;-82
2023/06/26 08:41:33;;;;;;;12.43;6.37;;;;;;;28.81;37.05;99057.91;4481863;32;34806;-83
2023/06/26 08:44:00;;;;;;;10.13;6.80;;;;;;;28.69;36.98;99056.03;4482314;32;34266;-84
2023/06/26 08:46:28;;;;;;;12.75;6.78;;;;;;;28.28;38.08;99062.13;4481770;32;33613;-83
2023/06/26 08:49:05;;;;;;;9.45;6.03;;;;;;;28.66;37.60;99058.03;4481809;32;34756;-89
2023/06/26 08:51:33;;;;;;;13.32;6.47;;;;;;;29.23;37.06;99056.13;4481541;32;34892;-83
2023/06/26 08:54:02;;;;;;;11.35;6.05;;;;;;;28.50;37.43;99051.00;4480560;32;34117;-89
2023/06/26 08:56:39;;;;;;;11.52;6.75;;;;;;;28.56;37.52;99061.31;4480414;32;33667;-83
2023/06/26 08:59:10;;;;;;;11.07;6.32;;;;;;;28.15;37.28;99055.84;4482661;32;34679;-82
2023/06/26 09:01:38;;;;;;;9.80;6.57;;;;;;;28.17;38.10;99055.72;4484277;32;33886;-82
2023/06/26 09:04:06;;;;;;;10.23;6.25;;;;;;;28.36;38.29;99045.63;4484179;32;34425;-82
2023/06/26 09:06:34;;;;;;;13.52;6.28;;;;;;;28.95;36.59;99051.72;4483986;32;33194;-83
2023/06/26 09:09:03;;;;;;;9.35;6.45;;;;;;;29.05;38.20;99060.84;4483854;32;33716;-83
2023/06/26 09:11:31;;;;;;;12.20;6.57;;;;;;;29.22;36.26;99056.25;4482690;32;34293;-83
2023/06/26 09:13:59;;;;;;;9.32;5.78;;;;;;;28.40;37.47;99055.19;4482598;32;33663;-83
2023/06/26 09:16:29;;;;;;;11.98;6.55;;;;;;;28.64;38.03;99054.59;4482861;32;33099;-82
2023/06/26 09:18:56;;;;;;;9.50;6.05;;;;;;;28.43;37.85;99055.00;4483690;32;34383;-85
2023/06/26 09:21:24;;;;;;;11.52;7.03;;;;;;;28.67;38.12;99054.41;4482584;32;33813;-83
2023/06/26 09:23:52;;;;;;;8.68;5.85;;;;;;;28.64;37.88;99057.28;4482385;32;34081;-83
2023/06/26 09:26:22;;;;;;;10.38;6.18;;;;;;;28.46;39.66;99051.31;4482421;32;34094;-83
2023/06/26 09:28:50;;;;;;;9.50;6.07;;;;;;;28.17;37.59;99058.41;4482509;32;33958;-82
2023/06/26 09:31:20;;;;;;;9.27;6.07;;;;;;;28.51;37.54;99047.38;4482737;32;33911;-83
2023/06/26 09:34:07;;;;;;;9.25;5.70;;;;;;;28.30;38.79;99048.72;4483840;32;34488;-82
2023/06/26 09:36:36;;;;;;;9.20;6.37;;;;;;;28.82;39.19;99053.44;4482631;32;33530;-94
2023/06/26 09:39:10;;;;;;;10.82;6.60;;;;;;;28.67;37.98;99046.41;4483742;32;34052;-82
2023/06/26 09:41:44;;;;;;;10.75;6.37;;;;;;;28.69;37.25;99050.72;4483944;32;34816;-83
2023/06/26 09:44:13;;;;;;;10.50;6.30;;;;;;;28.81;37.14;99057.91;4483684;32;33876;-93
2023/06/26 09:46:42;;;;;;;8.70;6.00;;;;;;;28.66;36.98;99052.72;4483781;32;33462;-83
2023/06/26 09:49:11;;;;;;;9.82;6.72;;;;;;;28.19;37.91;99048.50;4482418;32;33876;-83
2023/06/26 09:51:40;;;;;;;9.30;5.93;;;;;;;28.80;37.85;99044.69;4483170;32;34138;-82
2023/06/26 09:54:09;;;;;;;10.88;6.45;;;;;;;29.16;37.09;99035.28;4482383;32;32382;-83
2023/06/26 09:56:37;;;;;;;10.02;5.87;;;;;;;29.59;35.90;99038.66;4483523;32;33473;-83
2023/06/26 09:59:05;;;;;;;8.10;5.47;;;;;;;29.35;35.88;99035.75;4483342;32;33620;-82
2023/06/26 10:01:37;;;;;;;9.85;6.53;;;;;;;29.39;35.37;99026.59;4483550;32;34215;-83
2023/06/26 10:04:05;;;;;;;9.55;5.68;;;;;;;29.28;37.19;99029.12;4482486;32;34380;-82
2023/06/26 10:06:37;;;;;;;8.25;5.40;;;;;;;29.23;37.54;99029.41;4483360;32;34359;-83
2023/06/26 10:09:05;;;;;;;8.25;5.45;;;;;;;28.92;37.86;99038.56;4483782;32;34670;-84
2023/06/26 10:11:41;;;;;;;9.05;6.03;;;;;;;28.76;38.23;99036.03;4482084;32;32968;-84
2023/06/26 10:14:09;;;;;;;11.52;6.10;;;;;;;28.55;38.33;99032.91;4483628;32;33637;-88
2023/06/26 10:16:46;;;;;;;11.32;5.80;;;;;;;29.45;36.18;99034.19;4482203;32;34176;-91
2023/06/26 10:19:18;;;;;;;8.77;6.45;;;;;;;29.17;37.15;99026.28;4482259;32;34592;-87
2023/06/26 10:21:46;;;;;;;11.02;6.00;;;;;;;28.90;36.60;99024.44;4482393;32;35309;-94
2023/06/26 10:24:14;;;;;;;9.60;5.68;;;;;;;28.50;38.14;99032.34;4483620;32;33391;-89
2023/06/26 10:26:44;;;;;;;9.57;4.85;;;;;;;28.64;37.68;99027.94;4482228;32;33563;-83
2023/06/26 10:29:13;;;;;;;10.02;5.72;;;;;;;28.67;38.01;99020.59;4483468;32;33684;-83
2023/06/26 10:31:43;;;;;;;8.93;6.07;;;;;;;28.42;38.42;99036.44;4482061;32;34001;-84
2023/06/26 10:34:12;;;;;;;9.40;5.93;;;;;;;28.46;40.04;99025.50;4482353;32;34432;-84
2023/06/26 10:36:39;;;;;;;9.50;5.90;;;;;;;28.93;37.55;99024.25;4481769;32;33347;-84
2023/06/26 10:39:07;;;;;;;7.62;5.05;;;;;;;29.61;36.06;99030.53;4481852;32;34887;-83
2023/06/26 10:41:39;;;;;;;7.40;5.10;;;;;;;28.86;37.43;99023.78;4483183;32;34634;-83
2023/06/26 10:44:16;;;;;;;8.57;5.18;;;;;;;28.44;38.65;99030.03;4482994;32;34213;-83
2023/06/26 10:46:55;;;;;;;9.85;5.43;;;;;;;28.82;38.46;99032.09;4483334;32;33897;-84
2023/06/26 10:49:28;;;;;;;8.65;5.12;;;;;;;28.74;39.49;99024.56;4482906;32;34622;-84
2023/06/26 10:52:00;;;;;;;6.60;4.32;;;;;;;29.09;37.11;99019.69;4483081;32;34996;-88
2023/06/26 10:54:31;;;;;;;7.30;4.93;;;;;;;28.67;38.29;99017.06;4482324;32;33945;-83
2023/06/26 10:56:59;;;;;;;9.00;5.28;;;;;;;29.02;37.99;99023.69;4482933;32;34287;-83
2023/06/26 10:59:29;;;;;;;8.25;5.10;;;;;;;29.06;35.67;99019.88;4468978;32;33920;-83
2023/06/26 11:02:06;;;;;;;8.02;4.68;;;;;;;28.60;39.57;99036.16;4482090;32;34130;-84
2023/06/26 11:04:52;;;;;;;9.65;4.70;;;;;;;28.51;36.46;99025.19;4482003;32;33105;-83
2023/06/26 11:07:25;;;;;;;7.65;4.68;;;;;;;28.78;37.94;99030.56;4481819;32;33522;-83
2023/06/26 11:09:57;;;;;;;8.77;5.25;;;;;;;27.83;39.65;99031.13;4483316;31;32541;-85
2023/06/26 11:12:38;;;;;;;8.20;4.85;;;;;;;28.19;39.88;99024.53;4482980;32;34217;-83
2023/06/26 11:15:13;;;;;;;6.72;4.25;;;;;;;28.20;38.98;99024.41;4483296;32;33633;-86
2023/06/26 11:17:42;;;;;;;7.37;5.12;;;;;;;28.50;38.12;99019.00;4481838;32;34352;-83
2023/06/26 11:20:13;;;;;;;13.88;4.78;;;;;;;28.91;38.49;99015.50;4482169;32;33916;-85
2023/06/26 11:22:42;;;;;;;9.25;5.00;;;;;;;28.98;40.36;99010.63;4482928;32;35105;-84
2023/06/26 11:25:10;;;;;;;10.60;5.40;;;;;;;28.45;38.36;99021.12;4482830;32;33839;-83
2023/06/26 11:27:39;;;;;;;8.68;4.65;;;;;;;28.65;38.22;99009.19;4482914;32;33519;-85
2023/06/26 11:30:08;;;;;;;6.93;4.72;;;;;;;28.77;36.65;99007.53;4481756;32;33949;-83
2023/06/26 11:32:39;;;;;;;7.25;4.75;;;;;;;29.19;36.57;99003.88;4481298;32;35189;-83
2023/06/26 11:35:09;;;;;;;8.27;5.18;;;;;;;29.11;38.22;99005.38;4482811;32;34670;-87